sensor_id;sensor_type;location;lat;lon;timestamp;P1;durP1;ratioP1;P2;durP2;ratioP2
6725;SDS011;3400;48.506;11.692;2023-04-24T00:00:50;3.40;;;2.07;;
6725;SDS011;3400;48.506;11.692;2023-04-24T00:03:18;4.13;;;2.30;;
6725;SDS011;3400;48.506;11.692;2023-04-24T00:05:47;3.77;;;2.83;;
6725;SDS011;3400;48.506;11.692;2023-04-24T00:08:15;2.30;;;2.00;;
6725;SDS011;3400;48.506;11.692;2023-04-24T00:10:43;3.30;;;2.60;;
6725;SDS011;3400;48.506;11.692;2023-04-24T00:13:12;2.47;;;2.27;;
6725;SDS011;3400;48.506;11.692;2023-04-24T00:15:40;2.63;;;2.00;;
6725;SDS011;3400;48.506;11.692;2023-04-24T00:18:08;2.43;;;2.20;;
6725;SDS011;3400;48.506;11.692;2023-04-24T00:20:36;2.60;;;2.40;;
6725;SDS011;3400;48.506;11.692;2023-04-24T00:23:05;3.50;;;2.07;;
6725;SDS011;3400;48.506;11.692;2023-04-24T00:25:33;4.50;;;2.27;;
6725;SDS011;3400;48.506;11.692;2023-04-24T00:28:01;2.43;;;2.23;;
6725;SDS011;3400;48.506;11.692;2023-04-24T00:30:30;3.37;;;2.27;;
6725;SDS011;3400;48.506;11.692;2023-04-24T00:32:58;2.70;;;2.20;;
6725;SDS011;3400;48.506;11.692;2023-04-24T00:35:26;2.83;;;2.00;;
6725;SDS011;3400;48.506;11.692;2023-04-24T00:37:54;2.50;;;2.30;;
6725;SDS011;3400;48.506;11.692;2023-04-24T00:40:22;3.37;;;2.20;;
6725;SDS011;3400;48.506;11.692;2023-04-24T00:42:50;2.87;;;2.43;;
6725;SDS011;3400;48.506;11.692;2023-04-24T00:45:18;3.90;;;2.60;;
6725;SDS011;3400;48.506;11.692;2023-04-24T00:47:47;3.47;;;2.53;;
6725;SDS011;3400;48.506;11.692;2023-04-24T00:50:16;2.03;;;1.90;;
6725;SDS011;3400;48.506;11.692;2023-04-24T00:52:45;1.97;;;1.87;;
6725;SDS011;3400;48.506;11.692;2023-04-24T00:55:13;4.57;;;2.00;;
6725;SDS011;3400;48.506;11.692;2023-04-24T00:57:41;3.13;;;2.33;;
6725;SDS011;3400;48.506;11.692;2023-04-24T01:00:09;2.13;;;1.90;;
6725;SDS011;3400;48.506;11.692;2023-04-24T01:02:38;2.67;;;2.07;;
6725;SDS011;3400;48.506;11.692;2023-04-24T01:05:11;2.33;;;2.13;;
6725;SDS011;3400;48.506;11.692;2023-04-24T01:07:39;4.33;;;2.47;;
6725;SDS011;3400;48.506;11.692;2023-04-24T01:10:09;3.93;;;2.37;;
6725;SDS011;3400;48.506;11.692;2023-04-24T01:12:37;2.17;;;2.00;;
6725;SDS011;3400;48.506;11.692;2023-04-24T01:15:06;2.70;;;1.93;;
6725;SDS011;3400;48.506;11.692;2023-04-24T01:17:34;2.00;;;1.90;;
6725;SDS011;3400;48.506;11.692;2023-04-24T01:20:03;4.07;;;2.40;;
6725;SDS011;3400;48.506;11.692;2023-04-24T01:22:33;4.13;;;2.00;;
6725;SDS011;3400;48.506;11.692;2023-04-24T01:25:01;2.50;;;2.23;;
6725;SDS011;3400;48.506;11.692;2023-04-24T01:27:29;4.97;;;2.20;;
6725;SDS011;3400;48.506;11.692;2023-04-24T01:29:57;2.40;;;2.17;;
6725;SDS011;3400;48.506;11.692;2023-04-24T01:32:25;2.40;;;2.20;;
6725;SDS011;3400;48.506;11.692;2023-04-24T01:34:54;4.77;;;2.33;;
6725;SDS011;3400;48.506;11.692;2023-04-24T01:37:22;2.43;;;2.10;;
6725;SDS011;3400;48.506;11.692;2023-04-24T01:39:51;3.00;;;2.27;;
6725;SDS011;3400;48.506;11.692;2023-04-24T01:42:19;2.20;;;2.10;;
6725;SDS011;3400;48.506;11.692;2023-04-24T01:44:47;2.53;;;1.93;;
6725;SDS011;3400;48.506;11.692;2023-04-24T01:47:15;4.47;;;2.10;;
6725;SDS011;3400;48.506;11.692;2023-04-24T01:49:43;2.53;;;2.33;;
6725;SDS011;3400;48.506;11.692;2023-04-24T01:52:12;2.63;;;1.93;;
6725;SDS011;3400;48.506;11.692;2023-04-24T01:54:40;2.50;;;2.30;;
6725;SDS011;3400;48.506;11.692;2023-04-24T01:57:09;2.13;;;1.90;;
6725;SDS011;3400;48.506;11.692;2023-04-24T01:59:37;2.10;;;1.90;;
6725;SDS011;3400;48.506;11.692;2023-04-24T02:02:05;4.37;;;2.33;;
6725;SDS011;3400;48.506;11.692;2023-04-24T02:04:34;3.87;;;2.20;;
6725;SDS011;3400;48.506;11.692;2023-04-24T02:07:02;2.00;;;1.90;;
6725;SDS011;3400;48.506;11.692;2023-04-24T02:09:32;2.03;;;1.90;;
6725;SDS011;3400;48.506;11.692;2023-04-24T02:12:00;3.03;;;1.77;;
6725;SDS011;3400;48.506;11.692;2023-04-24T02:14:29;3.63;;;2.17;;
6725;SDS011;3400;48.506;11.692;2023-04-24T02:16:57;2.10;;;2.00;;
6725;SDS011;3400;48.506;11.692;2023-04-24T02:19:26;5.40;;;2.20;;
6725;SDS011;3400;48.506;11.692;2023-04-24T02:21:54;2.03;;;1.93;;
6725;SDS011;3400;48.506;11.692;2023-04-24T02:24:22;3.27;;;2.20;;
6725;SDS011;3400;48.506;11.692;2023-04-24T02:26:50;3.80;;;2.27;;
6725;SDS011;3400;48.506;11.692;2023-04-24T02:29:18;2.07;;;1.90;;
6725;SDS011;3400;48.506;11.692;2023-04-24T02:31:47;2.13;;;2.03;;
6725;SDS011;3400;48.506;11.692;2023-04-24T02:34:15;1.80;;;1.70;;
6725;SDS011;3400;48.506;11.692;2023-04-24T02:36:43;1.93;;;1.83;;
6725;SDS011;3400;48.506;11.692;2023-04-24T02:39:11;2.57;;;2.27;;
6725;SDS011;3400;48.506;11.692;2023-04-24T02:41:39;3.23;;;1.50;;
6725;SDS011;3400;48.506;11.692;2023-04-24T02:44:08;1.70;;;1.40;;
6725;SDS011;3400;48.506;11.692;2023-04-24T02:46:36;1.70;;;1.60;;
6725;SDS011;3400;48.506;11.692;2023-04-24T02:49:05;1.73;;;1.40;;
6725;SDS011;3400;48.506;11.692;2023-04-24T02:51:33;3.37;;;1.60;;
6725;SDS011;3400;48.506;11.692;2023-04-24T02:54:03;3.50;;;1.80;;
6725;SDS011;3400;48.506;11.692;2023-04-24T02:56:31;1.83;;;1.50;;
6725;SDS011;3400;48.506;11.692;2023-04-24T02:59:00;1.87;;;1.57;;
6725;SDS011;3400;48.506;11.692;2023-04-24T03:01:28;1.60;;;1.50;;
6725;SDS011;3400;48.506;11.692;2023-04-24T03:03:56;1.57;;;1.47;;
6725;SDS011;3400;48.506;11.692;2023-04-24T03:06:26;1.60;;;1.50;;
6725;SDS011;3400;48.506;11.692;2023-04-24T03:08:54;3.43;;;1.70;;
6725;SDS011;3400;48.506;11.692;2023-04-24T03:11:22;1.50;;;1.40;;
6725;SDS011;3400;48.506;11.692;2023-04-24T03:13:50;2.30;;;1.40;;
6725;SDS011;3400;48.506;11.692;2023-04-24T03:16:19;1.80;;;1.30;;
6725;SDS011;3400;48.506;11.692;2023-04-24T03:18:47;1.47;;;1.40;;
6725;SDS011;3400;48.506;11.692;2023-04-24T03:21:15;1.60;;;1.50;;
6725;SDS011;3400;48.506;11.692;2023-04-24T03:23:45;1.40;;;1.30;;
6725;SDS011;3400;48.506;11.692;2023-04-24T03:26:14;1.67;;;1.57;;
6725;SDS011;3400;48.506;11.692;2023-04-24T03:28:54;2.47;;;1.37;;
6725;SDS011;3400;48.506;11.692;2023-04-24T03:31:22;3.33;;;1.87;;
6725;SDS011;3400;48.506;11.692;2023-04-24T03:33:50;1.40;;;1.30;;
6725;SDS011;3400;48.506;11.692;2023-04-24T03:36:18;3.40;;;1.67;;
6725;SDS011;3400;48.506;11.692;2023-04-24T03:38:48;1.33;;;1.30;;
6725;SDS011;3400;48.506;11.692;2023-04-24T03:41:28;2.13;;;1.10;;
6725;SDS011;3400;48.506;11.692;2023-04-24T03:44:15;1.30;;;1.20;;
6725;SDS011;3400;48.506;11.692;2023-04-24T03:46:44;3.80;;;1.00;;
6725;SDS011;3400;48.506;11.692;2023-04-24T03:49:12;1.50;;;1.40;;
6725;SDS011;3400;48.506;11.692;2023-04-24T03:51:43;1.37;;;1.27;;
6725;SDS011;3400;48.506;11.692;2023-04-24T03:54:18;2.93;;;1.57;;
6725;SDS011;3400;48.506;11.692;2023-04-24T03:56:46;1.13;;;1.13;;
6725;SDS011;3400;48.506;11.692;2023-04-24T03:59:15;1.20;;;1.10;;
6725;SDS011;3400;48.506;11.692;2023-04-24T04:01:47;3.77;;;1.50;;
6725;SDS011;3400;48.506;11.692;2023-04-24T04:04:16;1.60;;;1.50;;
6725;SDS011;3400;48.506;11.692;2023-04-24T04:06:45;1.20;;;1.13;;
6725;SDS011;3400;48.506;11.692;2023-04-24T04:09:13;3.83;;;2.83;;
6725;SDS011;3400;48.506;11.692;2023-04-24T04:11:43;1.37;;;1.30;;
6725;SDS011;3400;48.506;11.692;2023-04-24T04:14:11;3.20;;;1.50;;
6725;SDS011;3400;48.506;11.692;2023-04-24T04:16:42;4.40;;;1.40;;
6725;SDS011;3400;48.506;11.692;2023-04-24T04:19:11;2.07;;;1.50;;
6725;SDS011;3400;48.506;11.692;2023-04-24T04:21:39;2.80;;;1.60;;
6725;SDS011;3400;48.506;11.692;2023-04-24T04:24:19;1.60;;;1.50;;
6725;SDS011;3400;48.506;11.692;2023-04-24T04:26:49;1.80;;;1.70;;
6725;SDS011;3400;48.506;11.692;2023-04-24T04:29:34;2.10;;;1.80;;
6725;SDS011;3400;48.506;11.692;2023-04-24T04:32:05;2.33;;;1.70;;
6725;SDS011;3400;48.506;11.692;2023-04-24T04:34:34;2.40;;;1.50;;
6725;SDS011;3400;48.506;11.692;2023-04-24T04:37:04;1.63;;;1.40;;
6725;SDS011;3400;48.506;11.692;2023-04-24T04:39:52;2.40;;;1.30;;
6725;SDS011;3400;48.506;11.692;2023-04-24T04:42:24;1.70;;;1.60;;
6725;SDS011;3400;48.506;11.692;2023-04-24T04:44:52;1.70;;;1.60;;
6725;SDS011;3400;48.506;11.692;2023-04-24T04:47:29;1.83;;;1.40;;
6725;SDS011;3400;48.506;11.692;2023-04-24T04:49:57;1.90;;;1.57;;
6725;SDS011;3400;48.506;11.692;2023-04-24T04:52:27;4.70;;;1.73;;
6725;SDS011;3400;48.506;11.692;2023-04-24T04:55:04;3.10;;;1.80;;
6725;SDS011;3400;48.506;11.692;2023-04-24T04:58:03;5.00;;;1.87;;
6725;SDS011;3400;48.506;11.692;2023-04-24T05:00:31;1.57;;;1.37;;
6725;SDS011;3400;48.506;11.692;2023-04-24T05:03:06;2.37;;;1.40;;
6725;SDS011;3400;48.506;11.692;2023-04-24T05:05:34;1.60;;;1.50;;
6725;SDS011;3400;48.506;11.692;2023-04-24T05:08:06;1.97;;;1.53;;
6725;SDS011;3400;48.506;11.692;2023-04-24T05:10:35;2.73;;;1.60;;
6725;SDS011;3400;48.506;11.692;2023-04-24T05:13:05;1.77;;;1.60;;
6725;SDS011;3400;48.506;11.692;2023-04-24T05:15:33;1.53;;;1.43;;
6725;SDS011;3400;48.506;11.692;2023-04-24T05:18:01;2.47;;;1.60;;
6725;SDS011;3400;48.506;11.692;2023-04-24T05:20:29;2.37;;;1.83;;
6725;SDS011;3400;48.506;11.692;2023-04-24T05:22:57;1.97;;;1.63;;
6725;SDS011;3400;48.506;11.692;2023-04-24T05:25:26;3.83;;;1.70;;
6725;SDS011;3400;48.506;11.692;2023-04-24T05:27:58;2.03;;;1.60;;
6725;SDS011;3400;48.506;11.692;2023-04-24T05:30:28;3.10;;;1.90;;
6725;SDS011;3400;48.506;11.692;2023-04-24T05:32:57;1.73;;;1.53;;
6725;SDS011;3400;48.506;11.692;2023-04-24T05:35:25;2.23;;;1.53;;
6725;SDS011;3400;48.506;11.692;2023-04-24T05:37:53;2.03;;;1.70;;
6725;SDS011;3400;48.506;11.692;2023-04-24T05:40:21;1.60;;;1.50;;
6725;SDS011;3400;48.506;11.692;2023-04-24T05:42:49;3.67;;;1.50;;
6725;SDS011;3400;48.506;11.692;2023-04-24T05:45:17;1.73;;;1.20;;
6725;SDS011;3400;48.506;11.692;2023-04-24T05:47:46;1.43;;;1.33;;
6725;SDS011;3400;48.506;11.692;2023-04-24T05:50:14;3.20;;;1.50;;
6725;SDS011;3400;48.506;11.692;2023-04-24T05:52:42;2.70;;;1.70;;
6725;SDS011;3400;48.506;11.692;2023-04-24T05:55:22;2.13;;;1.30;;
6725;SDS011;3400;48.506;11.692;2023-04-24T05:57:50;2.23;;;1.17;;
6725;SDS011;3400;48.506;11.692;2023-04-24T06:00:18;1.37;;;1.27;;
6725;SDS011;3400;48.506;11.692;2023-04-24T06:02:57;1.50;;;1.40;;
6725;SDS011;3400;48.506;11.692;2023-04-24T06:05:25;1.97;;;1.40;;
6725;SDS011;3400;48.506;11.692;2023-04-24T06:07:53;2.43;;;1.20;;
6725;SDS011;3400;48.506;11.692;2023-04-24T06:10:23;1.53;;;1.43;;
6725;SDS011;3400;48.506;11.692;2023-04-24T06:12:51;1.53;;;1.40;;
6725;SDS011;3400;48.506;11.692;2023-04-24T06:15:21;1.00;;;1.00;;
6725;SDS011;3400;48.506;11.692;2023-04-24T06:17:58;1.23;;;1.20;;
6725;SDS011;3400;48.506;11.692;2023-04-24T06:20:26;4.53;;;1.30;;
6725;SDS011;3400;48.506;11.692;2023-04-24T06:22:54;2.03;;;1.20;;
6725;SDS011;3400;48.506;11.692;2023-04-24T06:25:24;2.43;;;1.17;;
6725;SDS011;3400;48.506;11.692;2023-04-24T06:27:52;1.17;;;1.17;;
6725;SDS011;3400;48.506;11.692;2023-04-24T06:30:21;4.20;;;1.30;;
6725;SDS011;3400;48.506;11.692;2023-04-24T06:32:49;1.30;;;1.20;;
6725;SDS011;3400;48.506;11.692;2023-04-24T06:35:18;1.30;;;1.20;;
6725;SDS011;3400;48.506;11.692;2023-04-24T06:37:46;0.97;;;0.97;;
6725;SDS011;3400;48.506;11.692;2023-04-24T06:40:14;1.03;;;1.03;;
6725;SDS011;3400;48.506;11.692;2023-04-24T06:42:44;1.17;;;1.10;;
6725;SDS011;3400;48.506;11.692;2023-04-24T06:45:12;1.27;;;1.17;;
6725;SDS011;3400;48.506;11.692;2023-04-24T06:47:39;2.27;;;1.33;;
6725;SDS011;3400;48.506;11.692;2023-04-24T06:50:08;1.10;;;1.10;;
6725;SDS011;3400;48.506;11.692;2023-04-24T06:52:37;1.20;;;1.10;;
6725;SDS011;3400;48.506;11.692;2023-04-24T06:55:05;1.10;;;1.10;;
6725;SDS011;3400;48.506;11.692;2023-04-24T06:57:34;2.00;;;1.40;;
6725;SDS011;3400;48.506;11.692;2023-04-24T07:00:02;1.03;;;1.03;;
6725;SDS011;3400;48.506;11.692;2023-04-24T07:02:31;1.07;;;0.93;;
6725;SDS011;3400;48.506;11.692;2023-04-24T07:04:59;1.10;;;1.00;;
6725;SDS011;3400;48.506;11.692;2023-04-24T07:07:27;1.07;;;1.07;;
6725;SDS011;3400;48.506;11.692;2023-04-24T07:09:56;0.90;;;0.90;;
6725;SDS011;3400;48.506;11.692;2023-04-24T07:12:24;0.90;;;0.90;;
6725;SDS011;3400;48.506;11.692;2023-04-24T07:14:52;0.80;;;0.80;;
6725;SDS011;3400;48.506;11.692;2023-04-24T07:17:20;0.73;;;0.73;;
6725;SDS011;3400;48.506;11.692;2023-04-24T07:19:47;1.43;;;1.00;;
6725;SDS011;3400;48.506;11.692;2023-04-24T07:22:15;0.83;;;0.83;;
6725;SDS011;3400;48.506;11.692;2023-04-24T07:24:43;0.80;;;0.80;;
6725;SDS011;3400;48.506;11.692;2023-04-24T07:27:12;1.13;;;1.00;;
6725;SDS011;3400;48.506;11.692;2023-04-24T07:29:40;0.70;;;0.70;;
6725;SDS011;3400;48.506;11.692;2023-04-24T07:32:08;0.80;;;0.80;;
6725;SDS011;3400;48.506;11.692;2023-04-24T07:34:36;2.83;;;0.80;;
6725;SDS011;3400;48.506;11.692;2023-04-24T07:37:04;0.83;;;0.80;;
6725;SDS011;3400;48.506;11.692;2023-04-24T07:39:32;0.90;;;0.90;;
6725;SDS011;3400;48.506;11.692;2023-04-24T07:42:00;1.27;;;1.00;;
6725;SDS011;3400;48.506;11.692;2023-04-24T07:44:29;2.93;;;0.80;;
6725;SDS011;3400;48.506;11.692;2023-04-24T07:46:57;1.43;;;0.90;;
6725;SDS011;3400;48.506;11.692;2023-04-24T07:49:25;0.60;;;0.60;;
6725;SDS011;3400;48.506;11.692;2023-04-24T07:51:54;0.63;;;0.63;;
6725;SDS011;3400;48.506;11.692;2023-04-24T07:54:22;0.90;;;0.90;;
6725;SDS011;3400;48.506;11.692;2023-04-24T07:56:50;1.60;;;0.60;;
6725;SDS011;3400;48.506;11.692;2023-04-24T07:59:17;0.70;;;0.70;;
6725;SDS011;3400;48.506;11.692;2023-04-24T08:01:47;0.90;;;0.90;;
6725;SDS011;3400;48.506;11.692;2023-04-24T08:04:15;1.23;;;0.87;;
6725;SDS011;3400;48.506;11.692;2023-04-24T08:06:43;0.77;;;0.77;;
6725;SDS011;3400;48.506;11.692;2023-04-24T08:09:11;0.73;;;0.73;;
6725;SDS011;3400;48.506;11.692;2023-04-24T08:11:39;3.30;;;0.90;;
6725;SDS011;3400;48.506;11.692;2023-04-24T08:14:07;1.40;;;0.80;;
6725;SDS011;3400;48.506;11.692;2023-04-24T08:16:35;0.60;;;0.60;;
6725;SDS011;3400;48.506;11.692;2023-04-24T08:19:04;1.07;;;0.90;;
6725;SDS011;3400;48.506;11.692;2023-04-24T08:21:32;0.90;;;0.90;;
6725;SDS011;3400;48.506;11.692;2023-04-24T08:24:00;0.80;;;0.80;;
6725;SDS011;3400;48.506;11.692;2023-04-24T08:26:30;3.87;;;0.77;;
6725;SDS011;3400;48.506;11.692;2023-04-24T08:28:58;1.17;;;1.00;;
6725;SDS011;3400;48.506;11.692;2023-04-24T08:31:26;1.10;;;1.00;;
6725;SDS011;3400;48.506;11.692;2023-04-24T08:33:54;0.90;;;0.90;;
6725;SDS011;3400;48.506;11.692;2023-04-24T08:36:23;1.00;;;0.93;;
6725;SDS011;3400;48.506;11.692;2023-04-24T08:38:51;1.00;;;1.00;;
6725;SDS011;3400;48.506;11.692;2023-04-24T08:41:19;1.03;;;0.93;;
6725;SDS011;3400;48.506;11.692;2023-04-24T08:43:48;5.10;;;1.50;;
6725;SDS011;3400;48.506;11.692;2023-04-24T08:46:16;1.73;;;1.37;;
6725;SDS011;3400;48.506;11.692;2023-04-24T08:48:44;1.73;;;1.10;;
6725;SDS011;3400;48.506;11.692;2023-04-24T08:51:12;2.67;;;1.30;;
6725;SDS011;3400;48.506;11.692;2023-04-24T08:53:42;2.63;;;1.33;;
6725;SDS011;3400;48.506;11.692;2023-04-24T08:56:10;1.77;;;1.33;;
6725;SDS011;3400;48.506;11.692;2023-04-24T08:58:38;1.90;;;1.67;;
6725;SDS011;3400;48.506;11.692;2023-04-24T09:01:07;1.57;;;1.47;;
6725;SDS011;3400;48.506;11.692;2023-04-24T09:03:34;1.50;;;1.40;;
6725;SDS011;3400;48.506;11.692;2023-04-24T09:06:02;1.40;;;1.30;;
6725;SDS011;3400;48.506;11.692;2023-04-24T09:08:31;1.97;;;1.50;;
6725;SDS011;3400;48.506;11.692;2023-04-24T09:11:01;1.70;;;0.90;;
6725;SDS011;3400;48.506;11.692;2023-04-24T09:13:30;1.43;;;1.20;;
6725;SDS011;3400;48.506;11.692;2023-04-24T09:15:58;1.30;;;1.20;;
6725;SDS011;3400;48.506;11.692;2023-04-24T09:18:26;1.77;;;1.20;;
6725;SDS011;3400;48.506;11.692;2023-04-24T09:20:57;1.13;;;0.97;;
6725;SDS011;3400;48.506;11.692;2023-04-24T09:23:26;1.17;;;1.07;;
6725;SDS011;3400;48.506;11.692;2023-04-24T09:25:54;1.77;;;1.27;;
6725;SDS011;3400;48.506;11.692;2023-04-24T09:28:26;1.17;;;1.10;;
6725;SDS011;3400;48.506;11.692;2023-04-24T09:31:07;1.30;;;1.20;;
6725;SDS011;3400;48.506;11.692;2023-04-24T09:33:35;5.00;;;1.57;;
6725;SDS011;3400;48.506;11.692;2023-04-24T09:36:03;2.30;;;1.73;;
6725;SDS011;3400;48.506;11.692;2023-04-24T09:38:32;2.60;;;1.90;;
6725;SDS011;3400;48.506;11.692;2023-04-24T09:41:01;2.77;;;1.60;;
6725;SDS011;3400;48.506;11.692;2023-04-24T09:43:31;0.93;;;0.93;;
6725;SDS011;3400;48.506;11.692;2023-04-24T09:46:00;1.10;;;1.10;;
6725;SDS011;3400;48.506;11.692;2023-04-24T09:48:31;1.73;;;1.63;;
6725;SDS011;3400;48.506;11.692;2023-04-24T09:51:00;2.20;;;1.20;;
6725;SDS011;3400;48.506;11.692;2023-04-24T09:53:29;1.17;;;1.13;;
6725;SDS011;3400;48.506;11.692;2023-04-24T09:56:02;3.67;;;1.40;;
6725;SDS011;3400;48.506;11.692;2023-04-24T09:58:31;2.63;;;1.40;;
6725;SDS011;3400;48.506;11.692;2023-04-24T10:00:59;2.20;;;1.10;;
6725;SDS011;3400;48.506;11.692;2023-04-24T10:03:29;1.43;;;1.27;;
6725;SDS011;3400;48.506;11.692;2023-04-24T10:05:58;1.37;;;1.27;;
6725;SDS011;3400;48.506;11.692;2023-04-24T10:08:26;1.40;;;1.30;;
6725;SDS011;3400;48.506;11.692;2023-04-24T10:10:54;3.40;;;1.30;;
6725;SDS011;3400;48.506;11.692;2023-04-24T10:13:22;1.77;;;1.60;;
6725;SDS011;3400;48.506;11.692;2023-04-24T10:15:51;2.93;;;1.57;;
6725;SDS011;3400;48.506;11.692;2023-04-24T10:18:19;1.60;;;1.13;;
6725;SDS011;3400;48.506;11.692;2023-04-24T10:20:48;1.40;;;1.30;;
6725;SDS011;3400;48.506;11.692;2023-04-24T10:23:16;1.80;;;1.23;;
6725;SDS011;3400;48.506;11.692;2023-04-24T10:25:45;1.80;;;1.60;;
6725;SDS011;3400;48.506;11.692;2023-04-24T10:28:12;1.50;;;1.40;;
6725;SDS011;3400;48.506;11.692;2023-04-24T10:30:41;1.07;;;1.07;;
6725;SDS011;3400;48.506;11.692;2023-04-24T10:33:11;2.60;;;1.30;;
6725;SDS011;3400;48.506;11.692;2023-04-24T10:35:41;1.53;;;1.07;;
6725;SDS011;3400;48.506;11.692;2023-04-24T10:38:11;1.13;;;1.10;;
6725;SDS011;3400;48.506;11.692;2023-04-24T10:40:39;1.30;;;1.20;;
6725;SDS011;3400;48.506;11.692;2023-04-24T10:43:08;0.90;;;0.90;;
6725;SDS011;3400;48.506;11.692;2023-04-24T10:45:37;1.40;;;1.30;;
6725;SDS011;3400;48.506;11.692;2023-04-24T10:48:05;1.27;;;1.17;;
6725;SDS011;3400;48.506;11.692;2023-04-24T10:50:45;4.60;;;1.30;;
6725;SDS011;3400;48.506;11.692;2023-04-24T10:53:14;0.97;;;0.97;;
6725;SDS011;3400;48.506;11.692;2023-04-24T10:55:43;1.53;;;1.20;;
6725;SDS011;3400;48.506;11.692;2023-04-24T10:58:11;2.47;;;1.43;;
6725;SDS011;3400;48.506;11.692;2023-04-24T11:00:40;1.93;;;1.10;;
6725;SDS011;3400;48.506;11.692;2023-04-24T11:03:22;1.90;;;1.13;;
6725;SDS011;3400;48.506;11.692;2023-04-24T11:05:53;1.67;;;1.47;;
6725;SDS011;3400;48.506;11.692;2023-04-24T11:08:29;1.20;;;1.20;;
6725;SDS011;3400;48.506;11.692;2023-04-24T11:10:58;1.50;;;0.97;;
6725;SDS011;3400;48.506;11.692;2023-04-24T11:13:27;2.30;;;1.00;;
6725;SDS011;3400;48.506;11.692;2023-04-24T11:16:14;2.60;;;0.93;;
6725;SDS011;3400;48.506;11.692;2023-04-24T11:18:42;1.10;;;1.00;;
6725;SDS011;3400;48.506;11.692;2023-04-24T11:21:17;1.07;;;0.97;;
6725;SDS011;3400;48.506;11.692;2023-04-24T11:23:45;1.40;;;1.30;;
6725;SDS011;3400;48.506;11.692;2023-04-24T11:26:17;2.37;;;1.10;;
6725;SDS011;3400;48.506;11.692;2023-04-24T11:28:46;1.00;;;1.00;;
6725;SDS011;3400;48.506;11.692;2023-04-24T11:34:05;1.13;;;1.13;;
6725;SDS011;3400;48.506;11.692;2023-04-24T11:36:34;1.33;;;1.10;;
6725;SDS011;3400;48.506;11.692;2023-04-24T11:39:03;2.20;;;1.30;;
6725;SDS011;3400;48.506;11.692;2023-04-24T11:41:31;1.20;;;1.10;;
6725;SDS011;3400;48.506;11.692;2023-04-24T11:43:59;1.60;;;1.50;;
6725;SDS011;3400;48.506;11.692;2023-04-24T11:46:27;2.00;;;1.37;;
6725;SDS011;3400;48.506;11.692;2023-04-24T11:48:57;1.50;;;1.10;;
6725;SDS011;3400;48.506;11.692;2023-04-24T11:51:26;1.20;;;1.10;;
6725;SDS011;3400;48.506;11.692;2023-04-24T11:53:56;1.43;;;1.30;;
6725;SDS011;3400;48.506;11.692;2023-04-24T11:56:24;1.30;;;1.20;;
6725;SDS011;3400;48.506;11.692;2023-04-24T11:58:52;1.10;;;1.10;;
6725;SDS011;3400;48.506;11.692;2023-04-24T12:01:21;2.13;;;1.50;;
6725;SDS011;3400;48.506;11.692;2023-04-24T12:03:49;1.50;;;1.40;;
6725;SDS011;3400;48.506;11.692;2023-04-24T12:06:17;1.30;;;1.20;;
6725;SDS011;3400;48.506;11.692;2023-04-24T12:08:46;3.03;;;1.40;;
6725;SDS011;3400;48.506;11.692;2023-04-24T12:11:16;1.87;;;1.77;;
6725;SDS011;3400;48.506;11.692;2023-04-24T12:13:47;3.87;;;1.80;;
6725;SDS011;3400;48.506;11.692;2023-04-24T12:16:15;2.30;;;1.50;;
6725;SDS011;3400;48.506;11.692;2023-04-24T12:18:43;2.23;;;1.70;;
6725;SDS011;3400;48.506;11.692;2023-04-24T12:21:14;2.70;;;1.80;;
6725;SDS011;3400;48.506;11.692;2023-04-24T12:23:43;1.97;;;1.77;;
6725;SDS011;3400;48.506;11.692;2023-04-24T12:26:12;1.53;;;1.43;;
6725;SDS011;3400;48.506;11.692;2023-04-24T12:28:46;1.90;;;1.30;;
6725;SDS011;3400;48.506;11.692;2023-04-24T12:31:14;1.50;;;1.40;;
6725;SDS011;3400;48.506;11.692;2023-04-24T12:33:42;6.20;;;1.40;;
6725;SDS011;3400;48.506;11.692;2023-04-24T12:36:10;1.60;;;1.50;;
6725;SDS011;3400;48.506;11.692;2023-04-24T12:38:39;1.37;;;1.10;;
6725;SDS011;3400;48.506;11.692;2023-04-24T12:41:08;1.00;;;1.00;;
6725;SDS011;3400;48.506;11.692;2023-04-24T12:43:36;1.73;;;1.10;;
6725;SDS011;3400;48.506;11.692;2023-04-24T12:46:05;1.40;;;0.97;;
6725;SDS011;3400;48.506;11.692;2023-04-24T12:48:33;1.57;;;0.90;;
6725;SDS011;3400;48.506;11.692;2023-04-24T12:51:01;1.50;;;1.30;;
6725;SDS011;3400;48.506;11.692;2023-04-24T12:53:29;1.20;;;1.00;;
6725;SDS011;3400;48.506;11.692;2023-04-24T12:55:57;0.80;;;0.80;;
6725;SDS011;3400;48.506;11.692;2023-04-24T12:58:25;2.10;;;0.97;;
6725;SDS011;3400;48.506;11.692;2023-04-24T13:00:53;1.33;;;0.93;;
6725;SDS011;3400;48.506;11.692;2023-04-24T13:03:22;1.20;;;0.90;;
6725;SDS011;3400;48.506;11.692;2023-04-24T13:05:50;2.10;;;1.30;;
6725;SDS011;3400;48.506;11.692;2023-04-24T13:08:18;1.97;;;1.00;;
6725;SDS011;3400;48.506;11.692;2023-04-24T13:10:46;1.17;;;0.93;;
6725;SDS011;3400;48.506;11.692;2023-04-24T13:13:13;1.67;;;1.20;;
6725;SDS011;3400;48.506;11.692;2023-04-24T13:15:41;1.30;;;1.20;;
6725;SDS011;3400;48.506;11.692;2023-04-24T13:18:09;1.00;;;1.00;;
6725;SDS011;3400;48.506;11.692;2023-04-24T13:20:39;2.90;;;0.90;;
6725;SDS011;3400;48.506;11.692;2023-04-24T13:23:07;1.17;;;1.07;;
6725;SDS011;3400;48.506;11.692;2023-04-24T13:25:36;5.80;;;1.07;;
6725;SDS011;3400;48.506;11.692;2023-04-24T13:28:04;1.33;;;0.93;;
6725;SDS011;3400;48.506;11.692;2023-04-24T13:30:32;2.80;;;1.20;;
6725;SDS011;3400;48.506;11.692;2023-04-24T13:33:00;1.07;;;1.00;;
6725;SDS011;3400;48.506;11.692;2023-04-24T13:35:28;1.33;;;1.00;;
6725;SDS011;3400;48.506;11.692;2023-04-24T13:37:58;0.90;;;0.90;;
6725;SDS011;3400;48.506;11.692;2023-04-24T13:40:26;0.73;;;0.73;;
6725;SDS011;3400;48.506;11.692;2023-04-24T13:42:55;1.07;;;1.00;;
6725;SDS011;3400;48.506;11.692;2023-04-24T13:45:23;1.90;;;0.97;;
6725;SDS011;3400;48.506;11.692;2023-04-24T13:47:50;2.10;;;0.97;;
6725;SDS011;3400;48.506;11.692;2023-04-24T13:50:19;1.13;;;1.10;;
6725;SDS011;3400;48.506;11.692;2023-04-24T13:52:47;2.77;;;0.87;;
6725;SDS011;3400;48.506;11.692;2023-04-24T13:55:16;1.00;;;1.00;;
6725;SDS011;3400;48.506;11.692;2023-04-24T13:57:44;0.87;;;0.87;;
6725;SDS011;3400;48.506;11.692;2023-04-24T14:00:12;2.33;;;0.93;;
6725;SDS011;3400;48.506;11.692;2023-04-24T14:02:40;0.90;;;0.90;;
6725;SDS011;3400;48.506;11.692;2023-04-24T14:05:08;1.07;;;0.87;;
6725;SDS011;3400;48.506;11.692;2023-04-24T14:07:37;2.80;;;1.00;;
6725;SDS011;3400;48.506;11.692;2023-04-24T14:10:05;0.90;;;0.90;;
6725;SDS011;3400;48.506;11.692;2023-04-24T14:12:35;1.13;;;1.03;;
6725;SDS011;3400;48.506;11.692;2023-04-24T14:15:03;2.53;;;1.13;;
6725;SDS011;3400;48.506;11.692;2023-04-24T14:17:31;1.63;;;0.83;;
6725;SDS011;3400;48.506;11.692;2023-04-24T14:19:59;1.30;;;0.80;;
6725;SDS011;3400;48.506;11.692;2023-04-24T14:22:28;0.93;;;0.90;;
6725;SDS011;3400;48.506;11.692;2023-04-24T14:24:56;2.17;;;0.93;;
6725;SDS011;3400;48.506;11.692;2023-04-24T14:27:24;3.33;;;0.70;;
6725;SDS011;3400;48.506;11.692;2023-04-24T14:29:55;0.97;;;0.70;;
6725;SDS011;3400;48.506;11.692;2023-04-24T14:32:27;1.17;;;0.60;;
6725;SDS011;3400;48.506;11.692;2023-04-24T14:34:56;0.97;;;0.97;;
6725;SDS011;3400;48.506;11.692;2023-04-24T14:37:30;0.80;;;0.70;;
6725;SDS011;3400;48.506;11.692;2023-04-24T14:40:02;1.53;;;0.70;;
6725;SDS011;3400;48.506;11.692;2023-04-24T14:42:32;0.90;;;0.90;;
6725;SDS011;3400;48.506;11.692;2023-04-24T14:45:06;0.90;;;0.90;;
6725;SDS011;3400;48.506;11.692;2023-04-24T14:47:35;0.80;;;0.73;;
6725;SDS011;3400;48.506;11.692;2023-04-24T14:50:04;1.70;;;0.90;;
6725;SDS011;3400;48.506;11.692;2023-04-24T14:52:32;2.77;;;1.00;;
6725;SDS011;3400;48.506;11.692;2023-04-24T14:55:00;2.00;;;0.90;;
6725;SDS011;3400;48.506;11.692;2023-04-24T14:57:28;1.73;;;1.40;;
6725;SDS011;3400;48.506;11.692;2023-04-24T14:59:56;2.37;;;0.83;;
6725;SDS011;3400;48.506;11.692;2023-04-24T15:02:25;1.77;;;1.00;;
6725;SDS011;3400;48.506;11.692;2023-04-24T15:04:53;2.20;;;0.90;;
6725;SDS011;3400;48.506;11.692;2023-04-24T15:07:21;3.77;;;0.90;;
6725;SDS011;3400;48.506;11.692;2023-04-24T15:09:49;1.30;;;0.97;;
6725;SDS011;3400;48.506;11.692;2023-04-24T15:12:17;7.10;;;1.23;;
6725;SDS011;3400;48.506;11.692;2023-04-24T15:14:45;1.10;;;1.00;;